sensor_id;sensor_type;location;lat;lon;timestamp;P1;durP1;ratioP1;P2;durP2;ratioP2
27622;SDS011;15041;45.334;5.622;2023-08-31T00:00:07;2.60;;;2.40;;
27622;SDS011;15041;45.334;5.622;2023-08-31T00:02:39;6.43;;;3.58;;
27622;SDS011;15041;45.334;5.622;2023-08-31T00:05:07;3.42;;;3.13;;
27622;SDS011;15041;45.334;5.622;2023-08-31T00:07:35;3.38;;;2.47;;
27622;SDS011;15041;45.334;5.622;2023-08-31T00:10:02;2.75;;;2.38;;
27622;SDS011;15041;45.334;5.622;2023-08-31T00:12:34;3.22;;;2.92;;
27622;SDS011;15041;45.334;5.622;2023-08-31T00:15:03;2.65;;;2.45;;
27622;SDS011;15041;45.334;5.622;2023-08-31T00:17:31;2.95;;;2.72;;
27622;SDS011;15041;45.334;5.622;2023-08-31T00:19:59;3.83;;;2.70;;
27622;SDS011;15041;45.334;5.622;2023-08-31T00:22:26;2.65;;;2.45;;
27622;SDS011;15041;45.334;5.622;2023-08-31T00:24:54;3.97;;;2.60;;
27622;SDS011;15041;45.334;5.622;2023-08-31T00:27:21;4.63;;;2.55;;
27622;SDS011;15041;45.334;5.622;2023-08-31T00:29:48;3.80;;;2.53;;
27622;SDS011;15041;45.334;5.622;2023-08-31T00:32:16;3.00;;;2.42;;
27622;SDS011;15041;45.334;5.622;2023-08-31T00:34:45;2.65;;;2.45;;
27622;SDS011;15041;45.334;5.622;2023-08-31T00:37:13;3.67;;;2.50;;
27622;SDS011;15041;45.334;5.622;2023-08-31T00:39:41;2.92;;;2.63;;
27622;SDS011;15041;45.334;5.622;2023-08-31T00:42:09;2.53;;;2.33;;
27622;SDS011;15041;45.334;5.622;2023-08-31T00:44:36;4.80;;;2.60;;
27622;SDS011;15041;45.334;5.622;2023-08-31T00:47:03;2.40;;;2.22;;
27622;SDS011;15041;45.334;5.622;2023-08-31T00:49:32;2.50;;;2.30;;
27622;SDS011;15041;45.334;5.622;2023-08-31T00:52:00;3.95;;;2.78;;
27622;SDS011;15041;45.334;5.622;2023-08-31T00:54:30;2.88;;;2.63;;
27622;SDS011;15041;45.334;5.622;2023-08-31T00:56:57;2.40;;;2.30;;
27622;SDS011;15041;45.334;5.622;2023-08-31T00:59:24;3.20;;;3.00;;
27622;SDS011;15041;45.334;5.622;2023-08-31T01:01:55;3.30;;;2.90;;
27622;SDS011;15041;45.334;5.622;2023-08-31T01:04:32;3.13;;;2.47;;
27622;SDS011;15041;45.334;5.622;2023-08-31T01:07:09;2.95;;;2.33;;
27622;SDS011;15041;45.334;5.622;2023-08-31T01:09:51;5.85;;;2.58;;
27622;SDS011;15041;45.334;5.622;2023-08-31T01:12:26;2.08;;;1.98;;
27622;SDS011;15041;45.334;5.622;2023-08-31T01:15:02;2.50;;;2.30;;
27622;SDS011;15041;45.334;5.622;2023-08-31T01:17:35;2.30;;;2.10;;
27622;SDS011;15041;45.334;5.622;2023-08-31T01:20:08;2.28;;;2.17;;
27622;SDS011;15041;45.334;5.622;2023-08-31T01:22:39;4.80;;;2.50;;
27622;SDS011;15041;45.334;5.622;2023-08-31T01:25:11;3.70;;;2.60;;
27622;SDS011;15041;45.334;5.622;2023-08-31T01:27:39;5.22;;;2.70;;
27622;SDS011;15041;45.334;5.622;2023-08-31T01:30:07;2.60;;;2.40;;
27622;SDS011;15041;45.334;5.622;2023-08-31T01:32:35;2.53;;;2.33;;
27622;SDS011;15041;45.334;5.622;2023-08-31T01:35:04;2.60;;;2.40;;
27622;SDS011;15041;45.334;5.622;2023-08-31T01:37:34;2.40;;;2.20;;
27622;SDS011;15041;45.334;5.622;2023-08-31T01:40:09;2.85;;;2.50;;
27622;SDS011;15041;45.334;5.622;2023-08-31T01:42:42;3.92;;;2.83;;
27622;SDS011;15041;45.334;5.622;2023-08-31T01:45:10;5.15;;;2.60;;
27622;SDS011;15041;45.334;5.622;2023-08-31T01:47:39;3.58;;;2.67;;
27622;SDS011;15041;45.334;5.622;2023-08-31T01:50:07;2.50;;;2.30;;
27622;SDS011;15041;45.334;5.622;2023-08-31T01:52:36;3.65;;;2.40;;
27622;SDS011;15041;45.334;5.622;2023-08-31T01:55:04;3.42;;;2.50;;
27622;SDS011;15041;45.334;5.622;2023-08-31T01:57:33;3.58;;;2.75;;
27622;SDS011;15041;45.334;5.622;2023-08-31T02:00:13;4.35;;;2.53;;
27622;SDS011;15041;45.334;5.622;2023-08-31T02:02:42;3.05;;;2.78;;
27622;SDS011;15041;45.334;5.622;2023-08-31T02:05:09;7.13;;;2.72;;
27622;SDS011;15041;45.334;5.622;2023-08-31T02:07:36;4.20;;;2.85;;
27622;SDS011;15041;45.334;5.622;2023-08-31T02:10:05;2.58;;;2.42;;
27622;SDS011;15041;45.334;5.622;2023-08-31T02:12:35;3.92;;;2.50;;
27622;SDS011;15041;45.334;5.622;2023-08-31T02:15:03;2.70;;;2.50;;
27622;SDS011;15041;45.334;5.622;2023-08-31T02:17:31;4.88;;;2.30;;
27622;SDS011;15041;45.334;5.622;2023-08-31T02:19:58;4.03;;;2.70;;
27622;SDS011;15041;45.334;5.622;2023-08-31T02:22:29;3.83;;;2.63;;
27622;SDS011;15041;45.334;5.622;2023-08-31T02:24:56;3.15;;;2.70;;
27622;SDS011;15041;45.334;5.622;2023-08-31T02:27:23;2.40;;;2.20;;
27622;SDS011;15041;45.334;5.622;2023-08-31T02:29:52;5.38;;;2.65;;
27622;SDS011;15041;45.334;5.622;2023-08-31T02:32:19;3.40;;;2.70;;
27622;SDS011;15041;45.334;5.622;2023-08-31T02:34:46;2.75;;;2.55;;
27622;SDS011;15041;45.334;5.622;2023-08-31T02:37:13;3.22;;;2.50;;
27622;SDS011;15041;45.334;5.622;2023-08-31T02:39:41;2.58;;;2.38;;
27622;SDS011;15041;45.334;5.622;2023-08-31T02:42:08;2.70;;;2.50;;
27622;SDS011;15041;45.334;5.622;2023-08-31T02:44:35;2.40;;;2.20;;
27622;SDS011;15041;45.334;5.622;2023-08-31T02:47:04;6.38;;;2.90;;
27622;SDS011;15041;45.334;5.622;2023-08-31T02:49:31;5.88;;;2.47;;
27622;SDS011;15041;45.334;5.622;2023-08-31T02:51:58;3.42;;;2.50;;
27622;SDS011;15041;45.334;5.622;2023-08-31T02:54:25;3.53;;;3.13;;
27622;SDS011;15041;45.334;5.622;2023-08-31T02:56:53;2.85;;;2.65;;
27622;SDS011;15041;45.334;5.622;2023-08-31T02:59:20;3.40;;;2.63;;
27622;SDS011;15041;45.334;5.622;2023-08-31T03:01:48;3.92;;;3.08;;
27622;SDS011;15041;45.334;5.622;2023-08-31T03:04:17;2.90;;;2.70;;
27622;SDS011;15041;45.334;5.622;2023-08-31T03:06:45;3.20;;;2.67;;
27622;SDS011;15041;45.334;5.622;2023-08-31T03:09:12;2.63;;;2.42;;
27622;SDS011;15041;45.334;5.622;2023-08-31T03:11:40;3.85;;;2.72;;
27622;SDS011;15041;45.334;5.622;2023-08-31T03:14:07;3.40;;;2.50;;
27622;SDS011;15041;45.334;5.622;2023-08-31T03:16:35;3.13;;;2.83;;
27622;SDS011;15041;45.334;5.622;2023-08-31T03:19:02;3.65;;;2.70;;
27622;SDS011;15041;45.334;5.622;2023-08-31T03:21:31;2.72;;;2.40;;
27622;SDS011;15041;45.334;5.622;2023-08-31T03:24:01;2.97;;;2.65;;
27622;SDS011;15041;45.334;5.622;2023-08-31T03:26:29;3.22;;;2.58;;
27622;SDS011;15041;45.334;5.622;2023-08-31T03:28:56;5.00;;;2.65;;
27622;SDS011;15041;45.334;5.622;2023-08-31T03:31:23;3.03;;;2.75;;
27622;SDS011;15041;45.334;5.622;2023-08-31T03:33:50;7.65;;;2.65;;
27622;SDS011;15041;45.334;5.622;2023-08-31T03:36:18;3.78;;;2.80;;
27622;SDS011;15041;45.334;5.622;2023-08-31T03:38:46;3.63;;;2.83;;
27622;SDS011;15041;45.334;5.622;2023-08-31T03:41:13;2.50;;;2.30;;
27622;SDS011;15041;45.334;5.622;2023-08-31T03:43:40;3.35;;;2.83;;
27622;SDS011;15041;45.334;5.622;2023-08-31T03:46:07;6.90;;;2.88;;
27622;SDS011;15041;45.334;5.622;2023-08-31T03:48:35;2.67;;;2.42;;
27622;SDS011;15041;45.334;5.622;2023-08-31T03:51:02;3.10;;;2.70;;
27622;SDS011;15041;45.334;5.622;2023-08-31T03:53:29;4.25;;;2.78;;
27622;SDS011;15041;45.334;5.622;2023-08-31T03:56:00;3.08;;;2.80;;
27622;SDS011;15041;45.334;5.622;2023-08-31T03:58:29;7.75;;;2.80;;
27622;SDS011;15041;45.334;5.622;2023-08-31T04:00:57;3.10;;;2.90;;
27622;SDS011;15041;45.334;5.622;2023-08-31T04:03:24;2.78;;;2.58;;
27622;SDS011;15041;45.334;5.622;2023-08-31T04:05:54;6.30;;;3.50;;
27622;SDS011;15041;45.334;5.622;2023-08-31T04:08:22;3.05;;;2.85;;
27622;SDS011;15041;45.334;5.622;2023-08-31T04:10:49;4.50;;;3.13;;
27622;SDS011;15041;45.334;5.622;2023-08-31T04:13:17;6.25;;;3.60;;
27622;SDS011;15041;45.334;5.622;2023-08-31T04:15:45;4.28;;;3.88;;
27622;SDS011;15041;45.334;5.622;2023-08-31T04:18:14;4.78;;;3.45;;
27622;SDS011;15041;45.334;5.622;2023-08-31T04:20:47;7.07;;;4.03;;
27622;SDS011;15041;45.334;5.622;2023-08-31T04:23:15;6.13;;;3.25;;
27622;SDS011;15041;45.334;5.622;2023-08-31T04:25:42;5.68;;;3.90;;
27622;SDS011;15041;45.334;5.622;2023-08-31T04:28:10;7.50;;;4.28;;
27622;SDS011;15041;45.334;5.622;2023-08-31T04:30:38;6.82;;;3.65;;
27622;SDS011;15041;45.334;5.622;2023-08-31T04:33:06;5.50;;;3.95;;
27622;SDS011;15041;45.334;5.622;2023-08-31T04:35:33;6.60;;;3.92;;
27622;SDS011;15041;45.334;5.622;2023-08-31T04:38:00;4.00;;;3.60;;
27622;SDS011;15041;45.334;5.622;2023-08-31T04:40:28;5.40;;;4.05;;
27622;SDS011;15041;45.334;5.622;2023-08-31T04:42:55;6.57;;;3.97;;
27622;SDS011;15041;45.334;5.622;2023-08-31T04:45:23;9.57;;;4.97;;
27622;SDS011;15041;45.334;5.622;2023-08-31T04:47:52;8.98;;;4.20;;
27622;SDS011;15041;45.334;5.622;2023-08-31T04:50:19;5.45;;;4.22;;
27622;SDS011;15041;45.334;5.622;2023-08-31T04:52:47;5.78;;;4.28;;
27622;SDS011;15041;45.334;5.622;2023-08-31T04:55:14;5.05;;;4.22;;
27622;SDS011;15041;45.334;5.622;2023-08-31T04:57:41;7.30;;;3.67;;
27622;SDS011;15041;45.334;5.622;2023-08-31T05:00:08;4.47;;;4.07;;
27622;SDS011;15041;45.334;5.622;2023-08-31T05:02:37;5.80;;;4.35;;
27622;SDS011;15041;45.334;5.622;2023-08-31T05:05:06;6.97;;;4.07;;
27622;SDS011;15041;45.334;5.622;2023-08-31T05:07:34;5.22;;;3.70;;
27622;SDS011;15041;45.334;5.622;2023-08-31T05:10:01;3.58;;;3.28;;
27622;SDS011;15041;45.334;5.622;2023-08-31T05:12:29;3.65;;;3.28;;
27622;SDS011;15041;45.334;5.622;2023-08-31T05:14:56;4.88;;;3.97;;
27622;SDS011;15041;45.334;5.622;2023-08-31T05:17:23;5.65;;;4.00;;
27622;SDS011;15041;45.334;5.622;2023-08-31T05:19:50;3.72;;;3.38;;
27622;SDS011;15041;45.334;5.622;2023-08-31T05:22:19;5.07;;;3.58;;
27622;SDS011;15041;45.334;5.622;2023-08-31T05:24:46;3.97;;;3.67;;
27622;SDS011;15041;45.334;5.622;2023-08-31T05:27:13;8.82;;;3.70;;
27622;SDS011;15041;45.334;5.622;2023-08-31T05:29:40;5.78;;;4.18;;
27622;SDS011;15041;45.334;5.622;2023-08-31T05:32:07;6.43;;;3.55;;
27622;SDS011;15041;45.334;5.622;2023-08-31T05:34:34;8.32;;;3.78;;
27622;SDS011;15041;45.334;5.622;2023-08-31T05:37:04;10.07;;;3.55;;
27622;SDS011;15041;45.334;5.622;2023-08-31T05:39:33;3.20;;;2.95;;
27622;SDS011;15041;45.334;5.622;2023-08-31T05:42:01;3.72;;;3.38;;
27622;SDS011;15041;45.334;5.622;2023-08-31T05:44:28;4.82;;;3.70;;
27622;SDS011;15041;45.334;5.622;2023-08-31T05:46:55;7.38;;;3.90;;
27622;SDS011;15041;45.334;5.622;2023-08-31T05:49:22;8.40;;;3.90;;
27622;SDS011;15041;45.334;5.622;2023-08-31T05:51:49;10.07;;;4.18;;
27622;SDS011;15041;45.334;5.622;2023-08-31T05:54:17;6.65;;;4.10;;
27622;SDS011;15041;45.334;5.622;2023-08-31T05:56:45;8.13;;;4.15;;
27622;SDS011;15041;45.334;5.622;2023-08-31T05:59:13;5.63;;;3.28;;
27622;SDS011;15041;45.334;5.622;2023-08-31T06:01:40;4.50;;;3.33;;
27622;SDS011;15041;45.334;5.622;2023-08-31T06:04:08;5.47;;;3.25;;
27622;SDS011;15041;45.334;5.622;2023-08-31T06:06:35;6.45;;;3.17;;
27622;SDS011;15041;45.334;5.622;2023-08-31T06:09:03;5.63;;;3.38;;
27622;SDS011;15041;45.334;5.622;2023-08-31T06:11:31;6.68;;;4.00;;
27622;SDS011;15041;45.334;5.622;2023-08-31T06:14:00;7.40;;;3.95;;
27622;SDS011;15041;45.334;5.622;2023-08-31T06:16:27;7.47;;;4.20;;
27622;SDS011;15041;45.334;5.622;2023-08-31T06:18:54;24.45;;;5.57;;
27622;SDS011;15041;45.334;5.622;2023-08-31T06:21:21;17.25;;;5.40;;
27622;SDS011;15041;45.334;5.622;2023-08-31T06:23:48;4.97;;;4.20;;
27622;SDS011;15041;45.334;5.622;2023-08-31T06:26:15;10.43;;;4.88;;
27622;SDS011;15041;45.334;5.622;2023-08-31T06:28:43;8.23;;;4.07;;
27622;SDS011;15041;45.334;5.622;2023-08-31T06:31:12;11.82;;;4.65;;
27622;SDS011;15041;45.334;5.622;2023-08-31T06:33:39;10.45;;;4.40;;
27622;SDS011;15041;45.334;5.622;2023-08-31T06:36:06;8.20;;;4.93;;
27622;SDS011;15041;45.334;5.622;2023-08-31T06:38:33;9.13;;;4.63;;
27622;SDS011;15041;45.334;5.622;2023-08-31T06:41:01;10.65;;;4.75;;
27622;SDS011;15041;45.334;5.622;2023-08-31T06:43:28;6.35;;;4.45;;
27622;SDS011;15041;45.334;5.622;2023-08-31T06:45:56;6.88;;;4.25;;
27622;SDS011;15041;45.334;5.622;2023-08-31T06:48:24;9.98;;;4.40;;
27622;SDS011;15041;45.334;5.622;2023-08-31T06:50:51;6.43;;;3.83;;
27622;SDS011;15041;45.334;5.622;2023-08-31T06:53:18;9.98;;;4.32;;
27622;SDS011;15041;45.334;5.622;2023-08-31T06:55:45;7.68;;;4.10;;
27622;SDS011;15041;45.334;5.622;2023-08-31T06:58:13;11.27;;;5.25;;
27622;SDS011;15041;45.334;5.622;2023-08-31T07:00:41;11.88;;;4.63;;
27622;SDS011;15041;45.334;5.622;2023-08-31T07:03:08;9.85;;;5.05;;
27622;SDS011;15041;45.334;5.622;2023-08-31T07:05:40;8.30;;;4.22;;
27622;SDS011;15041;45.334;5.622;2023-08-31T07:08:08;5.80;;;4.38;;
27622;SDS011;15041;45.334;5.622;2023-08-31T07:10:36;12.00;;;4.55;;
27622;SDS011;15041;45.334;5.622;2023-08-31T07:13:04;8.23;;;4.70;;
27622;SDS011;15041;45.334;5.622;2023-08-31T07:15:31;8.70;;;4.55;;
27622;SDS011;15041;45.334;5.622;2023-08-31T07:17:59;9.32;;;5.00;;
27622;SDS011;15041;45.334;5.622;2023-08-31T07:20:26;13.17;;;4.63;;
27622;SDS011;15041;45.334;5.622;2023-08-31T07:22:54;8.83;;;4.73;;
27622;SDS011;15041;45.334;5.622;2023-08-31T07:25:22;6.50;;;4.43;;
27622;SDS011;15041;45.334;5.622;2023-08-31T07:27:49;8.47;;;4.80;;
27622;SDS011;15041;45.334;5.622;2023-08-31T07:30:16;19.67;;;4.87;;
27622;SDS011;15041;45.334;5.622;2023-08-31T07:32:43;24.87;;;5.30;;
27622;SDS011;15041;45.334;5.622;2023-08-31T07:35:11;27.57;;;5.77;;
27622;SDS011;15041;45.334;5.622;2023-08-31T07:37:38;31.83;;;6.33;;
27622;SDS011;15041;45.334;5.622;2023-08-31T07:40:08;36.77;;;5.90;;
27622;SDS011;15041;45.334;5.622;2023-08-31T07:42:36;38.60;;;5.50;;
27622;SDS011;15041;45.334;5.622;2023-08-31T07:45:03;29.17;;;5.28;;
27622;SDS011;15041;45.334;5.622;2023-08-31T07:47:31;32.65;;;5.10;;
27622;SDS011;15041;45.334;5.622;2023-08-31T07:49:59;21.33;;;5.07;;
27622;SDS011;15041;45.334;5.622;2023-08-31T07:52:26;24.50;;;6.25;;
27622;SDS011;15041;45.334;5.622;2023-08-31T07:54:53;29.10;;;6.65;;
27622;SDS011;15041;45.334;5.622;2023-08-31T07:57:21;44.13;;;6.65;;
27622;SDS011;15041;45.334;5.622;2023-08-31T07:59:49;30.58;;;4.30;;
27622;SDS011;15041;45.334;5.622;2023-08-31T08:02:17;39.35;;;6.35;;
27622;SDS011;15041;45.334;5.622;2023-08-31T08:04:45;30.70;;;5.70;;
27622;SDS011;15041;45.334;5.622;2023-08-31T08:07:12;34.38;;;6.00;;
27622;SDS011;15041;45.334;5.622;2023-08-31T08:09:39;30.40;;;6.07;;
27622;SDS011;15041;45.334;5.622;2023-08-31T08:12:07;18.02;;;4.82;;
27622;SDS011;15041;45.334;5.622;2023-08-31T08:14:36;25.20;;;5.97;;
27622;SDS011;15041;45.334;5.622;2023-08-31T08:17:03;15.00;;;5.32;;
27622;SDS011;15041;45.334;5.622;2023-08-31T08:19:30;12.98;;;4.05;;
27622;SDS011;15041;45.334;5.622;2023-08-31T08:21:57;13.98;;;4.25;;
27622;SDS011;15041;45.334;5.622;2023-08-31T08:24:25;9.80;;;4.10;;
27622;SDS011;15041;45.334;5.622;2023-08-31T08:26:53;17.00;;;3.75;;
27622;SDS011;15041;45.334;5.622;2023-08-31T08:29:20;7.35;;;3.42;;
27622;SDS011;15041;45.334;5.622;2023-08-31T08:31:49;7.35;;;3.38;;
27622;SDS011;15041;45.334;5.622;2023-08-31T08:34:16;8.65;;;3.03;;
27622;SDS011;15041;45.334;5.622;2023-08-31T08:36:43;6.70;;;3.63;;
27622;SDS011;15041;45.334;5.622;2023-08-31T08:39:10;8.30;;;3.80;;
27622;SDS011;15041;45.334;5.622;2023-08-31T08:41:37;14.73;;;3.90;;
27622;SDS011;15041;45.334;5.622;2023-08-31T08:44:07;5.78;;;3.65;;
27622;SDS011;15041;45.334;5.622;2023-08-31T08:46:35;7.85;;;3.88;;
27622;SDS011;15041;45.334;5.622;2023-08-31T08:49:05;7.47;;;4.05;;
27622;SDS011;15041;45.334;5.622;2023-08-31T08:51:33;7.78;;;3.60;;
27622;SDS011;15041;45.334;5.622;2023-08-31T08:54:01;4.53;;;3.28;;
27622;SDS011;15041;45.334;5.622;2023-08-31T08:56:29;13.95;;;3.63;;
27622;SDS011;15041;45.334;5.622;2023-08-31T08:58:56;12.65;;;3.80;;
27622;SDS011;15041;45.334;5.622;2023-08-31T09:01:23;14.95;;;3.97;;
27622;SDS011;15041;45.334;5.622;2023-08-31T09:03:51;8.35;;;3.20;;
27622;SDS011;15041;45.334;5.622;2023-08-31T09:06:20;7.40;;;4.45;;
27622;SDS011;15041;45.334;5.622;2023-08-31T09:08:53;12.88;;;3.50;;
27622;SDS011;15041;45.334;5.622;2023-08-31T09:11:21;8.02;;;3.78;;
27622;SDS011;15041;45.334;5.622;2023-08-31T09:13:48;6.93;;;3.35;;
27622;SDS011;15041;45.334;5.622;2023-08-31T09:16:23;5.10;;;3.00;;
27622;SDS011;15041;45.334;5.622;2023-08-31T09:18:55;5.63;;;3.28;;
27622;SDS011;15041;45.334;5.622;2023-08-31T09:21:23;7.38;;;3.38;;
27622;SDS011;15041;45.334;5.622;2023-08-31T09:24:01;7.20;;;3.15;;
27622;SDS011;15041;45.334;5.622;2023-08-31T09:26:36;4.25;;;3.05;;
27622;SDS011;15041;45.334;5.622;2023-08-31T09:29:05;6.95;;;3.17;;
27622;SDS011;15041;45.334;5.622;2023-08-31T09:31:32;17.15;;;3.60;;
27622;SDS011;15041;45.334;5.622;2023-08-31T09:33:59;13.05;;;3.40;;
27622;SDS011;15041;45.334;5.622;2023-08-31T09:36:29;31.20;;;4.45;;
27622;SDS011;15041;45.334;5.622;2023-08-31T09:38:58;3.90;;;2.30;;
27622;SDS011;15041;45.334;5.622;2023-08-31T09:41:25;2.85;;;2.25;;
27622;SDS011;15041;45.334;5.622;2023-08-31T09:43:52;4.60;;;2.80;;
27622;SDS011;15041;45.334;5.622;2023-08-31T09:46:20;2.55;;;1.92;;
27622;SDS011;15041;45.334;5.622;2023-08-31T09:48:48;2.50;;;2.30;;
27622;SDS011;15041;45.334;5.622;2023-08-31T09:51:16;2.38;;;2.08;;
27622;SDS011;15041;45.334;5.622;2023-08-31T09:53:49;4.50;;;2.35;;
27622;SDS011;15041;45.334;5.622;2023-08-31T09:56:21;2.50;;;2.30;;
27622;SDS011;15041;45.334;5.622;2023-08-31T09:58:50;2.28;;;2.03;;
27622;SDS011;15041;45.334;5.622;2023-08-31T10:01:17;3.58;;;2.70;;
27622;SDS011;15041;45.334;5.622;2023-08-31T10:03:45;3.15;;;2.38;;
27622;SDS011;15041;45.334;5.622;2023-08-31T10:06:12;8.68;;;2.60;;
27622;SDS011;15041;45.334;5.622;2023-08-31T10:08:40;3.85;;;1.90;;
27622;SDS011;15041;45.334;5.622;2023-08-31T10:11:09;2.95;;;2.30;;
27622;SDS011;15041;45.334;5.622;2023-08-31T10:13:39;2.15;;;1.95;;
27622;SDS011;15041;45.334;5.622;2023-08-31T10:16:08;2.35;;;2.15;;
27622;SDS011;15041;45.334;5.622;2023-08-31T10:18:36;2.10;;;1.95;;
27622;SDS011;15041;45.334;5.622;2023-08-31T10:21:03;4.13;;;2.20;;
27622;SDS011;15041;45.334;5.622;2023-08-31T10:23:31;2.88;;;2.35;;
27622;SDS011;15041;45.334;5.622;2023-08-31T10:26:01;4.60;;;2.15;;
27622;SDS011;15041;45.334;5.622;2023-08-31T10:28:38;4.53;;;1.95;;
27622;SDS011;15041;45.334;5.622;2023-08-31T10:31:07;2.45;;;2.25;;
27622;SDS011;15041;45.334;5.622;2023-08-31T10:33:39;2.05;;;1.92;;
27622;SDS011;15041;45.334;5.622;2023-08-31T10:36:11;3.17;;;2.40;;
27622;SDS011;15041;45.334;5.622;2023-08-31T10:38:40;3.88;;;2.40;;
27622;SDS011;15041;45.334;5.622;2023-08-31T10:41:21;6.05;;;2.42;;
27622;SDS011;15041;45.334;5.622;2023-08-31T10:43:53;2.80;;;2.33;;
27622;SDS011;15041;45.334;5.622;2023-08-31T10:46:27;8.93;;;3.03;;
27622;SDS011;15041;45.334;5.622;2023-08-31T10:48:56;3.33;;;2.38;;
27622;SDS011;15041;45.334;5.622;2023-08-31T10:51:26;2.53;;;2.33;;
27622;SDS011;15041;45.334;5.622;2023-08-31T10:54:04;4.75;;;2.30;;
27622;SDS011;15041;45.334;5.622;2023-08-31T10:56:32;2.17;;;1.98;;
27622;SDS011;15041;45.334;5.622;2023-08-31T10:59:01;11.55;;;2.67;;
27622;SDS011;15041;45.334;5.622;2023-08-31T11:04:20;3.97;;;2.42;;
27622;SDS011;15041;45.334;5.622;2023-08-31T11:06:48;1.98;;;1.88;;
27622;SDS011;15041;45.334;5.622;2023-08-31T11:09:19;2.30;;;2.10;;
27622;SDS011;15041;45.334;5.622;2023-08-31T11:11:47;2.42;;;2.22;;
27622;SDS011;15041;45.334;5.622;2023-08-31T11:14:16;3.13;;;2.20;;
27622;SDS011;15041;45.334;5.622;2023-08-31T11:16:43;5.15;;;2.35;;
27622;SDS011;15041;45.334;5.622;2023-08-31T11:19:11;4.63;;;2.40;;
27622;SDS011;15041;45.334;5.622;2023-08-31T11:21:38;2.55;;;2.22;;
27622;SDS011;15041;45.334;5.622;2023-08-31T11:24:08;4.28;;;2.13;;
27622;SDS011;15041;45.334;5.622;2023-08-31T11:26:35;6.40;;;2.33;;
27622;SDS011;15041;45.334;5.622;2023-08-31T11:29:06;2.20;;;2.00;;
27622;SDS011;15041;45.334;5.622;2023-08-31T11:31:38;2.28;;;2.13;;
27622;SDS011;15041;45.334;5.622;2023-08-31T11:34:06;2.00;;;1.80;;
27622;SDS011;15041;45.334;5.622;2023-08-31T11:36:35;2.55;;;2.35;;
27622;SDS011;15041;45.334;5.622;2023-08-31T11:39:03;2.05;;;1.95;;
27622;SDS011;15041;45.334;5.622;2023-08-31T11:41:30;5.60;;;2.30;;
27622;SDS011;15041;45.334;5.622;2023-08-31T11:43:59;2.22;;;2.03;;
27622;SDS011;15041;45.334;5.622;2023-08-31T11:46:26;2.33;;;2.22;;
27622;SDS011;15041;45.334;5.622;2023-08-31T11:48:55;2.80;;;1.88;;
27622;SDS011;15041;45.334;5.622;2023-08-31T11:51:22;2.60;;;2.10;;
27622;SDS011;15041;45.334;5.622;2023-08-31T11:53:49;3.25;;;2.13;;
27622;SDS011;15041;45.334;5.622;2023-08-31T11:56:17;2.60;;;2.10;;
27622;SDS011;15041;45.334;5.622;2023-08-31T11:58:44;2.50;;;2.10;;
27622;SDS011;15041;45.334;5.622;2023-08-31T12:01:17;3.53;;;2.40;;
27622;SDS011;15041;45.334;5.622;2023-08-31T12:03:46;2.38;;;2.17;;
27622;SDS011;15041;45.334;5.622;2023-08-31T12:06:18;5.95;;;2.60;;
27622;SDS011;15041;45.334;5.622;2023-08-31T12:08:45;2.45;;;2.25;;
27622;SDS011;15041;45.334;5.622;2023-08-31T12:11:13;3.80;;;2.90;;
27622;SDS011;15041;45.334;5.622;2023-08-31T12:13:41;3.88;;;2.05;;
27622;SDS011;15041;45.334;5.622;2023-08-31T12:16:11;2.42;;;2.22;;
27622;SDS011;15041;45.334;5.622;2023-08-31T12:18:39;5.00;;;2.25;;
27622;SDS011;15041;45.334;5.622;2023-08-31T12:21:07;2.40;;;2.20;;
27622;SDS011;15041;45.334;5.622;2023-08-31T12:23:35;3.90;;;2.17;;
27622;SDS011;15041;45.334;5.622;2023-08-31T12:26:05;2.28;;;2.08;;
27622;SDS011;15041;45.334;5.622;2023-08-31T12:28:33;2.63;;;2.17;;
27622;SDS011;15041;45.334;5.622;2023-08-31T12:31:00;2.10;;;1.92;;
27622;SDS011;15041;45.334;5.622;2023-08-31T12:33:28;2.03;;;1.75;;
27622;SDS011;15041;45.334;5.622;2023-08-31T12:35:55;2.92;;;2.30;;
27622;SDS011;15041;45.334;5.622;2023-08-31T12:38:22;5.82;;;2.10;;
27622;SDS011;15041;45.334;5.622;2023-08-31T12:40:51;1.90;;;1.80;;
27622;SDS011;15041;45.334;5.622;2023-08-31T12:43:19;2.90;;;2.55;;
27622;SDS011;15041;45.334;5.622;2023-08-31T12:45:46;3.45;;;2.35;;
27622;SDS011;15041;45.334;5.622;2023-08-31T12:48:13;2.47;;;2.28;;
27622;SDS011;15041;45.334;5.622;2023-08-31T12:50:40;2.65;;;2.10;;
27622;SDS011;15041;45.334;5.622;2023-08-31T12:53:07;2.28;;;2.03;;
27622;SDS011;15041;45.334;5.622;2023-08-31T12:55:34;2.75;;;2.00;;
27622;SDS011;15041;45.334;5.622;2023-08-31T12:58:03;4.00;;;2.13;;
27622;SDS011;15041;45.334;5.622;2023-08-31T13:00:30;3.03;;;1.83;;
27622;SDS011;15041;45.334;5.622;2023-08-31T13:02:59;2.00;;;1.90;;
27622;SDS011;15041;45.334;5.622;2023-08-31T13:05:28;3.97;;;1.95;;
27622;SDS011;15041;45.334;5.622;2023-08-31T13:07:55;2.38;;;2.17;;
27622;SDS011;15041;45.334;5.622;2023-08-31T13:10:22;2.30;;;2.10;;
27622;SDS011;15041;45.334;5.622;2023-08-31T13:12:49;2.38;;;2.20;;
27622;SDS011;15041;45.334;5.622;2023-08-31T13:15:18;2.40;;;2.20;;
27622;SDS011;15041;45.334;5.622;2023-08-31T13:17:45;2.60;;;2.33;;
27622;SDS011;15041;45.334;5.622;2023-08-31T13:20:12;2.38;;;2.28;;
27622;SDS011;15041;45.334;5.622;2023-08-31T13:22:39;2.97;;;2.38;;
27622;SDS011;15041;45.334;5.622;2023-08-31T13:25:07;2.35;;;2.15;;
27622;SDS011;15041;45.334;5.622;2023-08-31T13:27:36;2.20;;;2.08;;
27622;SDS011;15041;45.334;5.622;2023-08-31T13:30:04;2.30;;;2.10;;
27622;SDS011;15041;45.334;5.622;2023-08-31T13:32:33;2.65;;;2.20;;
27622;SDS011;15041;45.334;5.622;2023-08-31T13:35:01;2.88;;;2.10;;
27622;SDS011;15041;45.334;5.622;2023-08-31T13:37:32;2.35;;;2.15;;
27622;SDS011;15041;45.334;5.622;2023-08-31T13:40:00;13.40;;;2.65;;
27622;SDS011;15041;45.334;5.622;2023-08-31T13:42:32;2.28;;;2.17;;
27622;SDS011;15041;45.334;5.622;2023-08-31T13:45:04;3.17;;;2.10;;
27622;SDS011;15041;45.334;5.622;2023-08-31T13:47:34;3.05;;;2.50;;
27622;SDS011;15041;45.334;5.622;2023-08-31T13:50:01;2.75;;;2.30;;
27622;SDS011;15041;45.334;5.622;2023-08-31T13:52:29;2.45;;;2.20;;
27622;SDS011;15041;45.334;5.622;2023-08-31T13:54:56;2.75;;;2.25;;
27622;SDS011;15041;45.334;5.622;2023-08-31T13:57:23;5.28;;;2.38;;
27622;SDS011;15041;45.334;5.622;2023-08-31T13:59:51;2.75;;;2.55;;
27622;SDS011;15041;45.334;5.622;2023-08-31T14:02:18;4.78;;;2.30;;
27622;SDS011;15041;45.334;5.622;2023-08-31T14:04:47;2.47;;;2.20;;
27622;SDS011;15041;45.334;5.622;2023-08-31T14:07:14;5.10;;;2.53;;
27622;SDS011;15041;45.334;5.622;2023-08-31T14:09:42;2.65;;;2.13;;
27622;SDS011;15041;45.334;5.622;2023-08-31T14:12:12;3.28;;;2.42;;
27622;SDS011;15041;45.334;5.622;2023-08-31T14:14:39;2.05;;;1.85;;
27622;SDS011;15041;45.334;5.622;2023-08-31T14:17:07;3.00;;;2.13;;
27622;SDS011;15041;45.334;5.622;2023-08-31T14:19:34;4.38;;;2.30;;
27622;SDS011;15041;45.334;5.622;2023-08-31T14:22:03;1.98;;;1.88;;
27622;SDS011;15041;45.334;5.622;2023-08-31T14:24:30;8.73;;;2.03;;
27622;SDS011;15041;45.334;5.622;2023-08-31T14:26:58;2.38;;;2.17;;
27622;SDS011;15041;45.334;5.622;2023-08-31T14:29:25;2.88;;;2.05;;
27622;SDS011;15041;45.334;5.622;2023-08-31T14:31:52;2.38;;;2.20;;
27622;SDS011;15041;45.334;5.622;2023-08-31T14:34:19;5.68;;;2.20;;
27622;SDS011;15041;45.334;5.622;2023-08-31T14:36:47;2.95;;;1.90;;
27622;SDS011;15041;45.334;5.622;2023-08-31T14:39:15;4.03;;;2.15;;
27622;SDS011;15041;45.334;5.622;2023-08-31T14:41:43;4.10;;;2.55;;
27622;SDS011;15041;45.334;5.622;2023-08-31T14:44:10;2.92;;;2.22;;
27622;SDS011;15041;45.334;5.622;2023-08-31T14:46:37;2.45;;;2.20;;
27622;SDS011;15041;45.334;5.622;2023-08-31T14:49:05;2.67;;;2.47;;
27622;SDS011;15041;45.334;5.622;2023-08-31T14:51:32;2.30;;;2.10;;
27622;SDS011;15041;45.334;5.622;2023-08-31T14:53:59;2.50;;;2.30;;